createdAt,value
2022-11-16T00:01:06.784Z,8.73
2022-11-16T00:03:33.970Z,20.13
2022-11-16T00:06:03.297Z,10.77
2022-11-16T00:08:35.534Z,10.50
2022-11-16T00:11:15.087Z,11.37
2022-11-16T00:13:43.360Z,10.70
2022-11-16T00:16:17.097Z,10.07
2022-11-16T00:18:44.599Z,11.37
2022-11-16T00:21:11.457Z,9.97
2022-11-16T00:23:38.896Z,10.10
2022-11-16T00:26:12.115Z,11.87
2022-11-16T00:28:38.736Z,15.07
2022-11-16T00:31:07.145Z,14.80
2022-11-16T00:33:34.409Z,11.57
2022-11-16T00:36:05.611Z,12.97
2022-11-16T00:38:33.373Z,11.40
2022-11-16T00:41:00.179Z,13.30
2022-11-16T00:43:27.443Z,12.27
2022-11-16T00:45:54.095Z,13.53
2022-11-16T00:48:21.252Z,11.03
2022-11-16T00:50:48.222Z,12.30
2022-11-16T00:53:17.255Z,16.03
2022-11-16T00:55:46.053Z,12.60
2022-11-16T00:58:15.288Z,14.90
2022-11-16T01:00:44.311Z,15.77
2022-11-16T01:03:11.621Z,15.17
2022-11-16T01:05:38.353Z,13.07
2022-11-16T01:08:05.961Z,12.90
2022-11-16T01:10:33.078Z,16.43
2022-11-16T01:12:59.829Z,15.43
2022-11-16T01:15:27.897Z,14.33
2022-11-16T01:17:56.156Z,17.20
2022-11-16T01:20:26.043Z,16.90
2022-11-16T01:22:53.451Z,14.17
2022-11-16T01:25:20.442Z,16.70
2022-11-16T01:27:47.261Z,14.20
2022-11-16T01:30:28.177Z,15.40
2022-11-16T01:33:07.453Z,16.60
2022-11-16T01:35:34.277Z,15.30
2022-11-16T01:38:01.315Z,18.20
2022-11-16T01:40:28.410Z,16.57
2022-11-16T01:42:55.025Z,15.53
2022-11-16T01:45:31.744Z,17.23
2022-11-16T01:47:58.877Z,17.90
2022-11-16T01:50:30.262Z,16.90
2022-11-16T01:53:03.493Z,16.43
2022-11-16T01:55:38.156Z,13.03
2022-11-16T01:58:22.979Z,14.73
2022-11-16T02:00:55.378Z,14.53
2022-11-16T02:03:32.712Z,16.57
2022-11-16T02:06:26.741Z,16.10
2022-11-16T02:09:52.800Z,16.53
2022-11-16T02:12:39.205Z,13.50
2022-11-16T02:15:24.521Z,15.57
2022-11-16T02:18:34.535Z,12.50
2022-11-16T02:21:19.156Z,14.47
2022-11-16T02:23:55.222Z,13.93
2022-11-16T02:26:46.069Z,13.60
2022-11-16T02:29:21.369Z,13.47
2022-11-16T02:32:14.798Z,15.40
2022-11-16T02:34:53.162Z,12.10
2022-11-16T02:37:22.794Z,13.67
2022-11-16T02:39:54.298Z,10.53
2022-11-16T02:42:30.941Z,10.53
2022-11-16T02:44:59.270Z,10.90
2022-11-16T02:47:31.563Z,9.10
2022-11-16T02:50:03.436Z,7.20
2022-11-16T02:52:30.257Z,7.60
2022-11-16T02:54:57.012Z,8.13
2022-11-16T02:57:42.270Z,7.40
2022-11-16T03:00:43.422Z,7.57
2022-11-16T03:03:42.465Z,6.90
2022-11-16T03:06:33.115Z,5.97
2022-11-16T03:09:17.444Z,8.27
2022-11-16T03:12:01.946Z,7.30
2022-11-16T03:14:42.101Z,5.93
2022-11-16T03:17:18.510Z,5.73
2022-11-16T03:19:53.858Z,9.00
2022-11-16T03:22:44.897Z,9.70
2022-11-16T03:25:14.851Z,8.17
2022-11-16T03:28:05.738Z,7.57
2022-11-16T03:30:43.353Z,11.27
2022-11-16T03:33:30.252Z,13.57
2022-11-16T03:36:09.453Z,9.03
2022-11-16T03:38:39.253Z,9.83
2022-11-16T03:41:08.960Z,11.97
2022-11-16T03:43:38.771Z,8.67
2022-11-16T03:46:07.249Z,8.23
2022-11-16T03:48:36.219Z,9.17
2022-11-16T03:51:09.512Z,9.80
2022-11-16T03:53:37.397Z,6.03
2022-11-16T03:56:04.315Z,7.00
2022-11-16T03:58:31.342Z,6.10
2022-11-16T04:00:58.283Z,5.00
2022-11-16T04:03:26.752Z,4.43
2022-11-16T04:06:12.278Z,5.77
2022-11-16T04:08:57.932Z,5.30
2022-11-16T04:11:44.906Z,4.87
2022-11-16T04:14:41.792Z,3.80
2022-11-16T04:17:35.709Z,3.77
2022-11-16T04:20:21.729Z,5.60
2022-11-16T04:23:13.049Z,3.33
2022-11-16T04:25:42.042Z,4.77
2022-11-16T04:28:17.603Z,4.20
2022-11-16T04:31:13.249Z,4.03
2022-11-16T04:34:03.367Z,4.50
2022-11-16T04:36:48.673Z,3.47
2022-11-16T04:39:15.925Z,3.80
2022-11-16T04:42:03.101Z,2.77
2022-11-16T04:44:53.162Z,3.13
2022-11-16T04:47:19.946Z,2.20
2022-11-16T04:49:47.602Z,2.70
2022-11-16T04:52:14.272Z,3.43
2022-11-16T04:54:42.165Z,3.67
2022-11-16T04:57:09.424Z,2.90
2022-11-16T04:59:36.052Z,3.63
2022-11-16T05:02:09.306Z,4.47
2022-11-16T05:04:45.402Z,3.40
2022-11-16T05:07:14.457Z,2.83
2022-11-16T05:09:45.429Z,3.37
2022-11-16T05:12:24.147Z,2.20
2022-11-16T05:14:55.260Z,3.40
2022-11-16T05:17:25.435Z,2.23
2022-11-16T05:20:11.484Z,3.63
2022-11-16T05:22:58.052Z,2.80
2022-11-16T05:25:33.800Z,1.33
2022-11-16T05:28:04.674Z,0.83
2022-11-16T05:30:33.876Z,1.00
2022-11-16T05:33:02.726Z,1.10
2022-11-16T05:35:32.474Z,1.10
2022-11-16T05:37:59.299Z,0.90
2022-11-16T05:40:26.026Z,0.97
2022-11-16T05:42:58.064Z,0.90
2022-11-16T05:45:26.556Z,0.63
2022-11-16T05:47:53.520Z,1.20
2022-11-16T05:50:20.786Z,0.73
2022-11-16T05:53:00.302Z,2.10
2022-11-16T05:55:27.013Z,1.07
2022-11-16T05:57:53.613Z,0.63
2022-11-16T06:00:20.367Z,1.03
2022-11-16T06:02:50.663Z,3.00
2022-11-16T06:05:22.647Z,0.97
2022-11-16T06:07:49.374Z,2.23
2022-11-16T06:10:16.157Z,1.60
2022-11-16T06:12:45.310Z,2.53
2022-11-16T06:15:12.350Z,2.10
2022-11-16T06:17:39.041Z,0.90
2022-11-16T06:20:07.794Z,1.70
2022-11-16T06:22:34.495Z,1.40
2022-11-16T06:25:01.159Z,1.53
2022-11-16T06:27:28.100Z,1.87
2022-11-16T06:29:55.064Z,4.03
2022-11-16T06:32:22.132Z,1.40
2022-11-16T06:34:48.893Z,3.33
2022-11-16T06:37:15.718Z,3.23
2022-11-16T06:39:42.961Z,3.00
2022-11-16T06:42:09.649Z,4.73
2022-11-16T06:44:36.756Z,2.87
2022-11-16T06:47:04.405Z,3.03
2022-11-16T06:49:32.255Z,3.50
2022-11-16T06:52:01.980Z,4.73
2022-11-16T06:54:29.382Z,2.70
2022-11-16T06:56:56.001Z,9.83
2022-11-16T06:59:22.607Z,4.67
2022-11-16T07:01:49.694Z,5.80
2022-11-16T07:04:16.697Z,19.93
2022-11-16T07:06:49.703Z,9.70
2022-11-16T07:09:17.381Z,4.33
2022-11-16T07:11:44.409Z,4.20
2022-11-16T07:14:12.158Z,6.73
2022-11-16T07:16:38.880Z,8.80
2022-11-16T07:19:06.027Z,8.13
2022-11-16T07:21:34.316Z,9.23
2022-11-16T07:24:04.587Z,7.37
2022-11-16T07:26:35.279Z,5.40
2022-11-16T07:29:08.065Z,5.87
2022-11-16T07:31:37.941Z,6.27
2022-11-16T07:34:39.884Z,5.93
2022-11-16T07:37:10.658Z,6.47
2022-11-16T07:39:37.441Z,5.63
2022-11-16T07:42:11.386Z,10.03
2022-11-16T07:44:56.703Z,8.53
2022-11-16T07:47:23.522Z,9.07
2022-11-16T07:49:50.374Z,5.83
2022-11-16T07:52:19.948Z,6.23
2022-11-16T07:54:55.980Z,6.20
2022-11-16T07:57:25.235Z,5.80
2022-11-16T07:59:53.752Z,6.97
2022-11-16T08:02:20.528Z,5.57
2022-11-16T08:04:50.077Z,5.70
2022-11-16T08:07:19.324Z,5.53
2022-11-16T08:09:51.537Z,5.60
2022-11-16T08:12:18.369Z,8.20
2022-11-16T08:14:45.919Z,4.13
2022-11-16T08:17:13.489Z,6.70
2022-11-16T08:19:42.173Z,20.30
2022-11-16T08:22:10.945Z,2.90
2022-11-16T08:24:39.476Z,6.50
2022-11-16T08:27:06.434Z,3.17
2022-11-16T08:29:35.718Z,2.80
2022-11-16T08:32:04.877Z,5.57
2022-11-16T08:34:33.800Z,2.47
2022-11-16T08:37:00.638Z,7.33
2022-11-16T08:39:37.070Z,3.33
2022-11-16T08:42:03.820Z,3.40
2022-11-16T08:44:30.700Z,6.13
2022-11-16T08:47:01.122Z,5.97
2022-11-16T08:49:36.473Z,5.23
2022-11-16T08:52:03.953Z,8.90
2022-11-16T08:54:32.051Z,4.43
2022-11-16T08:56:59.176Z,6.10
2022-11-16T08:59:26.021Z,5.70
2022-11-16T09:01:56.290Z,9.23
2022-11-16T09:04:23.258Z,5.57
2022-11-16T09:06:52.576Z,3.43
2022-11-16T09:09:19.305Z,5.30
2022-11-16T09:11:45.986Z,11.00
2022-11-16T09:14:12.713Z,6.80
2022-11-16T09:16:40.330Z,4.17
2022-11-16T09:19:06.933Z,2.67
2022-11-16T09:21:35.998Z,5.33
2022-11-16T09:24:02.898Z,4.70
2022-11-16T09:26:29.599Z,7.00
2022-11-16T09:28:59.364Z,4.33
2022-11-16T09:31:27.611Z,7.00
2022-11-16T09:33:58.088Z,7.67
2022-11-16T09:36:28.602Z,5.33
2022-11-16T09:39:28.941Z,2.87
2022-11-16T09:41:58.140Z,4.83
2022-11-16T09:44:27.610Z,5.00
2022-11-16T09:46:57.275Z,7.60
2022-11-16T09:49:40.628Z,3.77
2022-11-16T09:52:19.486Z,9.67
2022-11-16T09:54:47.226Z,3.63
2022-11-16T09:57:18.155Z,8.20
2022-11-16T09:59:49.674Z,6.30
2022-11-16T10:02:31.475Z,5.37
2022-11-16T10:05:03.333Z,6.50
2022-11-16T10:07:45.889Z,4.50
2022-11-16T10:10:14.821Z,6.13
2022-11-16T10:12:57.632Z,9.40
2022-11-16T10:15:28.200Z,2.97
2022-11-16T10:18:09.113Z,4.33
2022-11-16T10:21:25.505Z,7.10
2022-11-16T10:24:24.303Z,7.30
2022-11-16T10:26:59.332Z,3.40
2022-11-16T10:29:33.477Z,4.47
2022-11-16T10:32:09.949Z,6.63
2022-11-16T10:34:54.166Z,5.60
2022-11-16T10:37:22.223Z,8.30
2022-11-16T10:39:51.036Z,4.93
2022-11-16T10:42:28.455Z,4.33
2022-11-16T10:45:10.338Z,6.03
2022-11-16T10:47:44.723Z,4.90
2022-11-16T10:50:31.693Z,7.17
2022-11-16T10:52:59.235Z,9.50
2022-11-16T10:55:28.557Z,4.30
2022-11-16T10:58:03.497Z,6.23
2022-11-16T11:00:53.201Z,4.00
2022-11-16T11:03:32.692Z,5.00
2022-11-16T11:06:00.050Z,9.43
2022-11-16T11:08:30.508Z,5.43
2022-11-16T11:11:01.667Z,5.73
2022-11-16T11:13:28.409Z,8.63
2022-11-16T11:16:15.711Z,3.47
2022-11-16T11:18:42.854Z,4.60
2022-11-16T11:21:21.174Z,6.50
2022-11-16T11:23:52.802Z,5.43
2022-11-16T11:26:40.953Z,5.40
2022-11-16T11:29:31.908Z,4.00
2022-11-16T11:32:05.104Z,13.40
2022-11-16T11:34:47.401Z,5.80
2022-11-16T11:37:21.992Z,4.23
2022-11-16T11:39:48.677Z,10.03
2022-11-16T11:42:15.253Z,6.10
2022-11-16T11:44:56.964Z,1.80
2022-11-16T11:47:59.854Z,5.90
2022-11-16T11:50:49.825Z,6.17
2022-11-16T11:53:51.799Z,8.23
2022-11-16T11:56:19.265Z,5.10
2022-11-16T11:58:46.787Z,5.33
2022-11-16T12:01:40.729Z,6.73
2022-11-16T12:04:28.550Z,3.57
2022-11-16T12:07:11.754Z,3.63
2022-11-16T12:10:01.890Z,3.63
2022-11-16T12:12:48.708Z,4.07
2022-11-16T12:15:50.669Z,3.23
2022-11-16T12:18:44.572Z,4.10
2022-11-16T12:21:41.634Z,4.33
2022-11-16T12:24:29.877Z,4.43
2022-11-16T12:27:29.222Z,3.93
2022-11-16T12:30:11.132Z,4.00
2022-11-16T12:33:17.735Z,4.90
2022-11-16T12:36:10.109Z,3.23
2022-11-16T12:38:39.822Z,5.97
2022-11-16T12:41:51.303Z,6.20
2022-11-16T12:44:31.916Z,5.13
2022-11-16T12:47:16.291Z,8.13
2022-11-16T12:50:07.025Z,4.97
2022-11-16T12:52:57.179Z,3.23
2022-11-16T12:55:36.717Z,5.67
2022-11-16T12:58:24.646Z,6.07
2022-11-16T13:01:02.970Z,5.40
2022-11-16T13:03:35.488Z,4.03
2022-11-16T13:06:05.921Z,4.97
2022-11-16T13:09:01.632Z,5.73
2022-11-16T13:11:34.721Z,3.80
2022-11-16T13:14:05.632Z,2.90
2022-11-16T13:16:32.514Z,5.90
2022-11-16T13:19:00.650Z,3.43
2022-11-16T13:21:38.197Z,5.40
2022-11-16T13:24:16.918Z,5.83
2022-11-16T13:27:14.713Z,5.40
2022-11-16T13:29:48.059Z,3.27
2022-11-16T13:32:25.159Z,5.00
2022-11-16T13:34:52.249Z,4.93
2022-11-16T13:37:34.246Z,3.20
2022-11-16T13:40:19.930Z,2.47
2022-11-16T13:43:11.452Z,1.93
2022-11-16T13:45:50.231Z,4.43
2022-11-16T13:48:25.254Z,6.23
2022-11-16T13:50:55.487Z,2.37
2022-11-16T13:54:25.081Z,2.70
2022-11-16T13:56:16.943Z,2.73
2022-11-16T13:58:49.781Z,3.40
2022-11-16T14:01:17.573Z,2.53
2022-11-16T14:03:51.821Z,4.13
2022-11-16T14:06:24.943Z,5.63
2022-11-16T14:08:53.390Z,5.40
2022-11-16T14:11:33.821Z,5.13
2022-11-16T14:14:05.740Z,4.67
2022-11-16T14:16:51.632Z,2.80
2022-11-16T14:19:47.439Z,3.00
2022-11-16T14:22:35.112Z,1.97
2022-11-16T14:25:08.001Z,3.93
2022-11-16T14:27:55.374Z,2.70
2022-11-16T14:30:25.521Z,2.17
2022-11-16T14:32:55.279Z,1.80
2022-11-16T14:35:35.137Z,5.37
2022-11-16T14:38:04.780Z,2.63
2022-11-16T14:40:41.850Z,4.97
2022-11-16T14:43:21.652Z,8.63
2022-11-16T14:45:54.755Z,2.73
2022-11-16T14:48:25.701Z,2.33
2022-11-16T14:51:27.533Z,3.07
2022-11-16T14:53:59.157Z,2.93
2022-11-16T14:56:26.402Z,4.47
2022-11-16T14:59:00.918Z,4.30
2022-11-16T15:01:30.057Z,5.43
2022-11-16T15:04:03.923Z,4.07
2022-11-16T15:06:41.447Z,9.60
2022-11-16T15:09:19.608Z,5.17
2022-11-16T15:12:07.455Z,3.57
2022-11-16T15:14:40.262Z,7.47
2022-11-16T15:17:07.999Z,5.57
2022-11-16T15:19:34.872Z,5.40
2022-11-16T15:22:04.133Z,5.40
2022-11-16T15:24:33.782Z,3.47
2022-11-16T15:27:26.188Z,3.67
2022-11-16T15:29:52.860Z,3.13
2022-11-16T15:32:19.523Z,5.43
2022-11-16T15:34:51.305Z,7.13
2022-11-16T15:37:30.129Z,6.40
2022-11-16T15:40:02.418Z,2.77
2022-11-16T15:42:29.350Z,5.70
2022-11-16T15:44:56.444Z,5.03
2022-11-16T15:47:24.389Z,15.00
2022-11-16T15:49:52.865Z,5.03
2022-11-16T15:52:50.193Z,6.93
2022-11-16T15:55:40.394Z,4.13
2022-11-16T15:58:13.655Z,8.03
2022-11-16T16:00:41.036Z,6.23
2022-11-16T16:03:19.719Z,6.30
2022-11-16T16:05:46.586Z,4.90
2022-11-16T16:08:31.676Z,4.67
2022-11-16T16:11:21.422Z,6.67
2022-11-16T16:14:01.264Z,6.10
2022-11-16T16:16:36.775Z,5.73
2022-11-16T16:19:24.269Z,2.20
2022-11-16T16:21:51.448Z,5.00
2022-11-16T16:24:45.550Z,3.43
2022-11-16T16:27:21.826Z,6.60
2022-11-16T16:29:50.592Z,3.53
2022-11-16T16:32:27.051Z,4.63
2022-11-16T16:34:58.306Z,8.60
2022-11-16T16:37:30.841Z,5.10
2022-11-16T16:39:58.063Z,5.93
2022-11-16T16:42:25.393Z,11.33
2022-11-16T16:44:52.108Z,6.70
2022-11-16T16:47:22.075Z,3.27
2022-11-16T16:49:49.211Z,6.83
2022-11-16T16:52:16.240Z,4.43
2022-11-16T16:54:42.888Z,4.43
2022-11-16T16:57:17.374Z,4.20
2022-11-16T16:59:48.433Z,7.27
2022-11-16T17:02:16.233Z,4.07
2022-11-16T17:04:48.211Z,7.80
2022-11-16T17:07:16.032Z,7.97
2022-11-16T17:09:42.962Z,4.53
2022-11-16T17:12:10.877Z,3.30
2022-11-16T17:14:37.681Z,2.53
2022-11-16T17:17:04.419Z,5.00
2022-11-16T17:19:31.057Z,4.80
2022-11-16T17:21:58.143Z,7.80
2022-11-16T17:24:24.736Z,3.10
2022-11-16T17:26:51.343Z,5.67
2022-11-16T17:29:17.948Z,4.63
2022-11-16T17:31:47.428Z,4.53
2022-11-16T17:34:14.596Z,5.77
2022-11-16T17:36:42.257Z,3.17
2022-11-16T17:39:09.242Z,3.67
2022-11-16T17:41:35.936Z,3.23
2022-11-16T17:44:05.112Z,4.23
2022-11-16T17:46:31.919Z,7.13
2022-11-16T17:48:58.562Z,3.83
2022-11-16T17:51:25.959Z,2.47
2022-11-16T17:53:53.113Z,3.13
2022-11-16T17:56:22.428Z,5.83
2022-11-16T17:58:52.456Z,5.80
2022-11-16T18:01:19.261Z,5.63
2022-11-16T18:03:46.014Z,4.67
2022-11-16T18:06:15.209Z,6.07
2022-11-16T18:08:43.538Z,5.17
2022-11-16T18:11:11.687Z,6.93
2022-11-16T18:13:38.657Z,4.90
2022-11-16T18:16:07.735Z,8.57
2022-11-16T18:18:34.786Z,5.20
2022-11-16T18:21:01.812Z,7.30
2022-11-16T18:23:29.047Z,9.20
2022-11-16T18:25:56.070Z,12.97
2022-11-16T18:28:23.239Z,8.30
2022-11-16T18:30:50.111Z,6.03
2022-11-16T18:33:16.943Z,8.73
2022-11-16T18:35:44.205Z,10.30
2022-11-16T18:38:12.980Z,6.43
2022-11-16T18:40:40.250Z,9.20
2022-11-16T18:43:12.613Z,4.97
2022-11-16T18:45:39.285Z,8.07
2022-11-16T18:48:06.012Z,7.53
2022-11-16T18:50:32.817Z,8.37
2022-11-16T18:52:59.431Z,8.97
2022-11-16T18:55:26.081Z,7.30
2022-11-16T18:57:52.766Z,7.03
2022-11-16T19:00:19.608Z,6.07
2022-11-16T19:02:46.228Z,6.00
2022-11-16T19:05:12.937Z,11.20
2022-11-16T19:07:39.631Z,5.63
2022-11-16T19:10:06.865Z,10.00
2022-11-16T19:12:33.463Z,5.03
2022-11-16T19:15:00.159Z,7.53
2022-11-16T19:17:27.342Z,8.83
2022-11-16T19:19:53.989Z,11.90
2022-11-16T19:22:20.576Z,5.43
2022-11-16T19:24:47.191Z,12.57
2022-11-16T19:27:13.781Z,11.37
2022-11-16T19:29:40.392Z,7.13
2022-11-16T19:32:07.045Z,12.20
2022-11-16T19:34:33.752Z,7.40
2022-11-16T19:37:01.763Z,6.63
2022-11-16T19:39:28.380Z,10.63
2022-11-16T19:41:55.021Z,7.67
2022-11-16T19:44:21.701Z,6.40
2022-11-16T19:46:48.351Z,4.57
2022-11-16T19:49:20.107Z,7.10
2022-11-16T19:51:47.571Z,6.27
2022-11-16T19:54:14.813Z,6.50
2022-11-16T19:56:42.232Z,7.20
2022-11-16T19:59:09.249Z,5.07
2022-11-16T20:01:35.914Z,7.03
2022-11-16T20:04:03.725Z,6.80
2022-11-16T20:06:36.044Z,5.53
2022-11-16T20:09:08.657Z,6.90
2022-11-16T20:11:37.521Z,10.93
2022-11-16T20:14:06.245Z,4.53
2022-11-16T20:16:39.139Z,5.80
2022-11-16T20:19:07.545Z,7.20
2022-11-16T20:21:36.744Z,4.13
2022-11-16T20:24:07.080Z,8.17
2022-11-16T20:26:35.495Z,4.50
2022-11-16T20:29:02.487Z,5.97
2022-11-16T20:31:31.447Z,6.50
2022-11-16T20:33:59.976Z,6.53
2022-11-16T20:36:30.121Z,5.80
2022-11-16T20:38:58.082Z,5.87
2022-11-16T20:41:27.007Z,5.17
2022-11-16T20:43:55.563Z,6.83
2022-11-16T20:46:24.938Z,7.40
2022-11-16T20:48:51.596Z,6.27
2022-11-16T20:51:19.753Z,8.73
2022-11-16T20:53:47.864Z,4.20
2022-11-16T20:56:15.855Z,7.87
2022-11-16T20:58:43.019Z,7.20
2022-11-16T21:01:16.169Z,6.70
2022-11-16T21:03:44.576Z,5.43
2022-11-16T21:06:14.957Z,4.73
2022-11-16T21:08:41.981Z,5.70
2022-11-16T21:11:19.641Z,3.17
2022-11-16T21:14:05.423Z,3.40
2022-11-16T21:16:33.521Z,5.07
2022-11-16T21:19:00.661Z,4.97
2022-11-16T21:21:27.905Z,6.10
2022-11-16T21:23:54.986Z,5.60
2022-11-16T21:26:27.232Z,3.63
2022-11-16T21:28:54.588Z,3.50
2022-11-16T21:31:25.525Z,5.63
2022-11-16T21:33:53.236Z,5.97
2022-11-16T21:36:22.226Z,6.77
2022-11-16T21:38:49.526Z,4.20
2022-11-16T21:41:17.745Z,7.53
2022-11-16T21:43:44.632Z,5.77
2022-11-16T21:46:12.775Z,6.90
2022-11-16T21:48:39.654Z,10.60
2022-11-16T21:51:09.478Z,2.70
2022-11-16T21:53:36.873Z,6.00
2022-11-16T21:56:04.995Z,2.40
2022-11-16T21:58:31.923Z,5.40
2022-11-16T22:01:00.892Z,6.73
2022-11-16T22:03:29.660Z,4.03
2022-11-16T22:06:17.285Z,4.83
2022-11-16T22:08:44.521Z,4.90
2022-11-16T22:11:11.869Z,5.60
2022-11-16T22:13:38.965Z,4.63
2022-11-16T22:16:15.024Z,6.00
2022-11-16T22:18:42.035Z,6.00
2022-11-16T22:21:09.025Z,4.60
2022-11-16T22:23:36.467Z,7.60
2022-11-16T22:26:06.408Z,6.17
2022-11-16T22:28:34.002Z,6.53
2022-11-16T22:31:02.357Z,5.37
2022-11-16T22:33:29.751Z,9.77
2022-11-16T22:35:56.736Z,3.20
2022-11-16T22:38:23.724Z,5.23
2022-11-16T22:40:52.097Z,8.67
2022-11-16T22:43:26.617Z,6.10
2022-11-16T22:45:57.588Z,4.67
2022-11-16T22:48:38.434Z,9.50
2022-11-16T22:51:07.887Z,6.00
2022-11-16T22:53:35.292Z,6.13
2022-11-16T22:56:07.219Z,9.60
2022-11-16T22:58:34.601Z,9.80
2022-11-16T23:01:01.634Z,4.57
2022-11-16T23:03:29.095Z,6.23
2022-11-16T23:05:55.949Z,4.90
2022-11-16T23:08:24.701Z,7.53
2022-11-16T23:11:24.942Z,9.33
2022-11-16T23:14:12.289Z,5.37
2022-11-16T23:16:40.104Z,6.87
2022-11-16T23:19:25.768Z,5.70
2022-11-16T23:22:11.023Z,9.17
2022-11-16T23:24:56.310Z,7.53
2022-11-16T23:27:29.659Z,5.10
2022-11-16T23:30:09.232Z,4.27
2022-11-16T23:32:38.638Z,7.90
2022-11-16T23:35:05.680Z,4.27
2022-11-16T23:37:32.352Z,5.27
2022-11-16T23:39:59.146Z,6.97
2022-11-16T23:42:44.159Z,2.27
2022-11-16T23:45:10.877Z,9.13
2022-11-16T23:47:37.484Z,9.40
2022-11-16T23:50:04.504Z,4.77
2022-11-16T23:52:31.096Z,5.50
2022-11-16T23:54:57.690Z,8.20
2022-11-16T23:57:24.287Z,4.23
2022-11-16T23:59:50.910Z,4.10
